Richards, Texas
Current Conditions -  °F | °C
As of 3:53 PM on Monday 20 Oct 2014 (Local Time) from KUTS Reporting Station
Few Clouds Few Clouds  
Wind Chill: 79°   Ceiling: Unl
Heat Index: 80°   Visibility: 10mi
Dew Point: 59°   Wind: 5mph
Humidity: 50%   Direction: NA
Pressure: 30.02"   Gusts: NA
Location:  30.54°N, 95.84°W
Report Text: KUTS 202053Z AUTO VRB04KT 10SM FEW042 26/15 A3002 RMK AO2 SLP161 T02610150 56018
Loading
Personal Weather Stations






























Interactive Weather Map
Tropical Storm Tracking
New forecast layout! Learn more

10-Day Weather Forecast

Advertisements
Track Severe Weather on mobile